Ana Sayfa
METAR-TAF:

METAR-TAF

Havaalanları :

Toliara, Madagaskar

Enlem: 23-23S, Boylam: 043-44E, yükseklik: 8 m

METAR: eksik

Saat: 00:56 (21:56 UTC)

Tahmin

Rapor saat 17:00 UTC de 4 saat ve 56 dakika önce yapıldı.
Ayın 24'si saat 18 UTC'den ayın 25'si saat 18 UTC'ye kadar geçerli Tahmin
Rüzgar güneydan 12 kt
Görüş mesafesi 10 km veya daha fazla
1600 ft yükseklikte parçalı bulutlu
3300 ft yükseklikte parçalı çok bulutlu

TAF: FMST 241700Z 2418/2518 17012KT 9999 SCT016 BKN033

4.000'den fazla havaalanı için hava durumu gözlemleri ve tahminleri (METAR ve TAF raporları).

Kullanılabilir istasyonlar harita üzerinde sarı ve kırmızı noktalarla gösterilir.

İstasyonun adını görmek için fareyi noktanın üzerinde gezdirin.

Sonrasında hava gözlem ve tahminlerini görmek için tıklayın.

Haritayı değiştirmek için: yaklaştırmak için siyah artı işaretli yeşil düğmeye ve uzaklaştırmak için de eksi işaretli düğmeye hızla tıklayın; bitişik haritalar için yeşil okları kullanın.


METAR-TAF: